sensor_id;sensor_type;location;lat;lon;timestamp;temperature;humidity
1786;DHT22;890;48.158;11.540;2023-12-20T00:01:02;8.20;54.40
1786;DHT22;890;48.158;11.540;2023-12-20T00:03:27;8.20;54.50
1786;DHT22;890;48.158;11.540;2023-12-20T00:05:53;8.10;54.70
1786;DHT22;890;48.158;11.540;2023-12-20T00:08:19;8.10;54.90
1786;DHT22;890;48.158;11.540;2023-12-20T00:10:45;8.10;54.90
1786;DHT22;890;48.158;11.540;2023-12-20T00:13:11;8.20;55.10
1786;DHT22;890;48.158;11.540;2023-12-20T00:15:38;8.30;55.10
1786;DHT22;890;48.158;11.540;2023-12-20T00:18:04;8.30;55.30
1786;DHT22;890;48.158;11.540;2023-12-20T00:20:29;8.20;55.40
1786;DHT22;890;48.158;11.540;2023-12-20T00:22:58;8.20;55.60
1786;DHT22;890;48.158;11.540;2023-12-20T00:25:24;8.20;55.90
1786;DHT22;890;48.158;11.540;2023-12-20T00:27:50;8.30;55.90
1786;DHT22;890;48.158;11.540;2023-12-20T00:30:16;8.40;56.00
1786;DHT22;890;48.158;11.540;2023-12-20T00:32:42;8.60;55.90
1786;DHT22;890;48.158;11.540;2023-12-20T00:35:14;8.60;55.80
1786;DHT22;890;48.158;11.540;2023-12-20T00:37:40;8.60;55.60
1786;DHT22;890;48.158;11.540;2023-12-20T00:40:06;8.70;55.60
1786;DHT22;890;48.158;11.540;2023-12-20T00:42:33;8.70;55.60
1786;DHT22;890;48.158;11.540;2023-12-20T00:45:00;8.70;55.40
1786;DHT22;890;48.158;11.540;2023-12-20T00:47:26;8.70;55.10
1786;DHT22;890;48.158;11.540;2023-12-20T00:49:51;8.60;54.90
1786;DHT22;890;48.158;11.540;2023-12-20T00:52:19;8.60;54.80
1786;DHT22;890;48.158;11.540;2023-12-20T00:54:45;8.60;55.30
1786;DHT22;890;48.158;11.540;2023-12-20T00:57:11;8.60;54.60
1786;DHT22;890;48.158;11.540;2023-12-20T00:59:37;8.70;54.40
1786;DHT22;890;48.158;11.540;2023-12-20T01:02:02;8.00;53.80
1786;DHT22;890;48.158;11.540;2023-12-20T01:04:28;8.70;54.40
1786;DHT22;890;48.158;11.540;2023-12-20T01:06:54;8.70;54.30
1786;DHT22;890;48.158;11.540;2023-12-20T01:09:19;8.80;54.30
1786;DHT22;890;48.158;11.540;2023-12-20T01:11:49;9.50;54.60
1786;DHT22;890;48.158;11.540;2023-12-20T01:14:15;8.80;54.00
1786;DHT22;890;48.158;11.540;2023-12-20T01:16:40;8.80;54.00
1786;DHT22;890;48.158;11.540;2023-12-20T01:19:07;8.70;54.00
1786;DHT22;890;48.158;11.540;2023-12-20T01:21:33;8.70;54.00
1786;DHT22;890;48.158;11.540;2023-12-20T01:23:58;8.70;54.10
1786;DHT22;890;48.158;11.540;2023-12-20T01:26:24;8.70;54.10
1786;DHT22;890;48.158;11.540;2023-12-20T01:28:50;8.70;54.10
1786;DHT22;890;48.158;11.540;2023-12-20T01:31:16;8.70;54.20
1786;DHT22;890;48.158;11.540;2023-12-20T01:33:42;8.70;54.40
1786;DHT22;890;48.158;11.540;2023-12-20T01:36:08;8.70;54.60
1786;DHT22;890;48.158;11.540;2023-12-20T01:38:34;8.70;54.70
1786;DHT22;890;48.158;11.540;2023-12-20T01:41:00;8.60;54.70
1786;DHT22;890;48.158;11.540;2023-12-20T01:43:26;8.60;54.90
1786;DHT22;890;48.158;11.540;2023-12-20T01:45:51;8.50;55.00
1786;DHT22;890;48.158;11.540;2023-12-20T01:48:18;8.50;55.20
1786;DHT22;890;48.158;11.540;2023-12-20T01:50:45;8.60;55.40
1786;DHT22;890;48.158;11.540;2023-12-20T01:53:12;8.50;55.40
1786;DHT22;890;48.158;11.540;2023-12-20T01:55:39;8.50;55.20
1786;DHT22;890;48.158;11.540;2023-12-20T01:58:09;8.70;55.60
1786;DHT22;890;48.158;11.540;2023-12-20T02:00:36;8.50;55.50
1786;DHT22;890;48.158;11.540;2023-12-20T02:03:03;8.60;55.60
1786;DHT22;890;48.158;11.540;2023-12-20T02:05:33;8.60;55.60
1786;DHT22;890;48.158;11.540;2023-12-20T02:07:59;9.00;55.90
1786;DHT22;890;48.158;11.540;2023-12-20T02:10:25;8.60;55.50
1786;DHT22;890;48.158;11.540;2023-12-20T02:12:51;8.60;55.50
1786;DHT22;890;48.158;11.540;2023-12-20T02:15:17;8.70;55.50
1786;DHT22;890;48.158;11.540;2023-12-20T02:17:44;8.70;55.50
1786;DHT22;890;48.158;11.540;2023-12-20T02:20:11;8.70;55.40
1786;DHT22;890;48.158;11.540;2023-12-20T02:22:36;8.70;55.40
1786;DHT22;890;48.158;11.540;2023-12-20T02:25:02;8.80;55.50
1786;DHT22;890;48.158;11.540;2023-12-20T02:27:29;8.80;55.60
1786;DHT22;890;48.158;11.540;2023-12-20T02:29:55;9.20;55.80
1786;DHT22;890;48.158;11.540;2023-12-20T02:32:21;8.70;55.50
1786;DHT22;890;48.158;11.540;2023-12-20T02:34:48;8.70;55.70
1786;DHT22;890;48.158;11.540;2023-12-20T02:37:14;8.80;56.00
1786;DHT22;890;48.158;11.540;2023-12-20T02:39:40;8.80;56.10
1786;DHT22;890;48.158;11.540;2023-12-20T02:42:07;8.70;56.30
1786;DHT22;890;48.158;11.540;2023-12-20T02:44:34;8.70;56.50
1786;DHT22;890;48.158;11.540;2023-12-20T02:46:59;8.70;56.80
1786;DHT22;890;48.158;11.540;2023-12-20T02:49:25;8.70;57.00
1786;DHT22;890;48.158;11.540;2023-12-20T02:51:51;8.80;57.20
1786;DHT22;890;48.158;11.540;2023-12-20T02:54:16;8.80;57.30
1786;DHT22;890;48.158;11.540;2023-12-20T02:56:42;8.80;57.50
1786;DHT22;890;48.158;11.540;2023-12-20T02:59:07;8.80;57.60
1786;DHT22;890;48.158;11.540;2023-12-20T03:01:41;8.80;57.80
1786;DHT22;890;48.158;11.540;2023-12-20T03:04:06;8.80;58.00
1786;DHT22;890;48.158;11.540;2023-12-20T03:06:32;8.80;57.90
1786;DHT22;890;48.158;11.540;2023-12-20T03:08:57;8.80;58.20
1786;DHT22;890;48.158;11.540;2023-12-20T03:11:27;8.80;58.30
1786;DHT22;890;48.158;11.540;2023-12-20T03:13:53;8.70;58.60
1786;DHT22;890;48.158;11.540;2023-12-20T03:16:18;8.80;58.90
1786;DHT22;890;48.158;11.540;2023-12-20T03:18:44;8.70;59.00
1786;DHT22;890;48.158;11.540;2023-12-20T03:21:09;8.70;59.30
1786;DHT22;890;48.158;11.540;2023-12-20T03:23:36;8.70;59.60
1786;DHT22;890;48.158;11.540;2023-12-20T03:26:06;8.70;59.90
1786;DHT22;890;48.158;11.540;2023-12-20T03:28:32;8.70;60.30
1786;DHT22;890;48.158;11.540;2023-12-20T03:30:57;8.80;60.60
1786;DHT22;890;48.158;11.540;2023-12-20T03:33:23;8.70;60.80
1786;DHT22;890;48.158;11.540;2023-12-20T03:35:49;8.70;61.20
1786;DHT22;890;48.158;11.540;2023-12-20T03:38:14;8.70;61.60
1786;DHT22;890;48.158;11.540;2023-12-20T03:40:40;8.70;62.00
1786;DHT22;890;48.158;11.540;2023-12-20T03:43:06;8.70;62.30
1786;DHT22;890;48.158;11.540;2023-12-20T03:45:31;8.70;62.60
1786;DHT22;890;48.158;11.540;2023-12-20T03:47:57;8.70;62.90
1786;DHT22;890;48.158;11.540;2023-12-20T03:50:23;8.70;63.20
1786;DHT22;890;48.158;11.540;2023-12-20T03:52:48;8.70;63.70
1786;DHT22;890;48.158;11.540;2023-12-20T03:55:16;8.70;64.00
1786;DHT22;890;48.158;11.540;2023-12-20T03:57:41;8.60;64.50
1786;DHT22;890;48.158;11.540;2023-12-20T04:00:10;8.60;65.10
1786;DHT22;890;48.158;11.540;2023-12-20T04:02:40;8.60;65.80
1786;DHT22;890;48.158;11.540;2023-12-20T04:05:08;8.50;67.00
1786;DHT22;890;48.158;11.540;2023-12-20T04:07:35;8.40;67.60
1786;DHT22;890;48.158;11.540;2023-12-20T04:10:02;8.30;68.00
1786;DHT22;890;48.158;11.540;2023-12-20T04:12:29;8.30;68.50
1786;DHT22;890;48.158;11.540;2023-12-20T04:14:56;8.30;68.80
1786;DHT22;890;48.158;11.540;2023-12-20T04:17:22;8.30;69.50
1786;DHT22;890;48.158;11.540;2023-12-20T04:19:50;8.20;70.00
1786;DHT22;890;48.158;11.540;2023-12-20T04:22:18;8.20;70.50
1786;DHT22;890;48.158;11.540;2023-12-20T04:24:44;8.20;71.10
1786;DHT22;890;48.158;11.540;2023-12-20T04:27:11;8.20;71.40
1786;DHT22;890;48.158;11.540;2023-12-20T04:29:37;8.20;72.10
1786;DHT22;890;48.158;11.540;2023-12-20T04:32:04;8.10;72.70
1786;DHT22;890;48.158;11.540;2023-12-20T04:34:30;8.00;73.20
1786;DHT22;890;48.158;11.540;2023-12-20T04:36:55;8.00;73.60
1786;DHT22;890;48.158;11.540;2023-12-20T04:39:21;8.40;74.40
1786;DHT22;890;48.158;11.540;2023-12-20T04:41:48;7.90;74.40
1786;DHT22;890;48.158;11.540;2023-12-20T04:44:15;8.00;74.90
1786;DHT22;890;48.158;11.540;2023-12-20T04:46:41;7.90;75.30
1786;DHT22;890;48.158;11.540;2023-12-20T04:49:07;7.90;75.80
1786;DHT22;890;48.158;11.540;2023-12-20T04:51:35;7.90;76.40
1786;DHT22;890;48.158;11.540;2023-12-20T04:54:02;8.30;78.00
1786;DHT22;890;48.158;11.540;2023-12-20T04:56:27;7.60;77.90
1786;DHT22;890;48.158;11.540;2023-12-20T04:58:53;7.60;78.80
1786;DHT22;890;48.158;11.540;2023-12-20T05:01:19;7.50;79.90
1786;DHT22;890;48.158;11.540;2023-12-20T05:03:44;7.40;81.20
1786;DHT22;890;48.158;11.540;2023-12-20T05:06:10;7.30;82.80
1786;DHT22;890;48.158;11.540;2023-12-20T05:08:36;6.90;84.20
1786;DHT22;890;48.158;11.540;2023-12-20T05:11:02;6.90;85.80
1786;DHT22;890;48.158;11.540;2023-12-20T05:13:28;6.80;86.70
1786;DHT22;890;48.158;11.540;2023-12-20T05:15:53;7.90;89.00
1786;DHT22;890;48.158;11.540;2023-12-20T05:18:20;6.90;89.10
1786;DHT22;890;48.158;11.540;2023-12-20T05:20:46;6.60;89.90
1786;DHT22;890;48.158;11.540;2023-12-20T05:23:11;7.00;90.50
1786;DHT22;890;48.158;11.540;2023-12-20T05:25:40;6.60;90.80
1786;DHT22;890;48.158;11.540;2023-12-20T05:28:05;7.70;91.70
1786;DHT22;890;48.158;11.540;2023-12-20T05:30:32;6.60;91.60
1786;DHT22;890;48.158;11.540;2023-12-20T05:32:59;6.60;91.90
1786;DHT22;890;48.158;11.540;2023-12-20T05:35:25;6.70;92.20
1786;DHT22;890;48.158;11.540;2023-12-20T05:37:50;6.50;92.50
1786;DHT22;890;48.158;11.540;2023-12-20T05:40:16;6.50;92.80
1786;DHT22;890;48.158;11.540;2023-12-20T05:42:41;6.50;93.10
1786;DHT22;890;48.158;11.540;2023-12-20T05:45:08;6.50;93.40
1786;DHT22;890;48.158;11.540;2023-12-20T05:47:34;6.50;93.70
1786;DHT22;890;48.158;11.540;2023-12-20T05:50:00;6.60;93.70
1786;DHT22;890;48.158;11.540;2023-12-20T05:52:26;6.90;93.90
1786;DHT22;890;48.158;11.540;2023-12-20T05:54:51;6.60;93.80
1786;DHT22;890;48.158;11.540;2023-12-20T05:57:18;6.90;94.10
1786;DHT22;890;48.158;11.540;2023-12-20T05:59:44;6.60;94.20
1786;DHT22;890;48.158;11.540;2023-12-20T06:02:10;6.30;94.50
1786;DHT22;890;48.158;11.540;2023-12-20T06:04:35;6.50;94.80
1786;DHT22;890;48.158;11.540;2023-12-20T06:07:01;6.20;94.90
1786;DHT22;890;48.158;11.540;2023-12-20T06:09:27;6.20;95.00
1786;DHT22;890;48.158;11.540;2023-12-20T06:11:53;6.90;95.60
1786;DHT22;890;48.158;11.540;2023-12-20T06:14:18;6.50;95.60
1786;DHT22;890;48.158;11.540;2023-12-20T06:16:45;6.10;95.70
1786;DHT22;890;48.158;11.540;2023-12-20T06:19:11;6.10;96.10
1786;DHT22;890;48.158;11.540;2023-12-20T06:21:37;6.80;96.80
1786;DHT22;890;48.158;11.540;2023-12-20T06:24:03;6.40;96.90
1786;DHT22;890;48.158;11.540;2023-12-20T06:26:29;5.80;96.90
1786;DHT22;890;48.158;11.540;2023-12-20T06:28:54;6.30;98.00
1786;DHT22;890;48.158;11.540;2023-12-20T06:31:20;6.00;98.00
1786;DHT22;890;48.158;11.540;2023-12-20T06:33:46;5.70;98.30
1786;DHT22;890;48.158;11.540;2023-12-20T06:36:12;5.80;98.80
1786;DHT22;890;48.158;11.540;2023-12-20T06:38:38;7.60;99.90
1786;DHT22;890;48.158;11.540;2023-12-20T06:41:04;6.30;99.90
1786;DHT22;890;48.158;11.540;2023-12-20T06:43:31;5.60;99.90
1786;DHT22;890;48.158;11.540;2023-12-20T06:45:58;5.50;99.90
1786;DHT22;890;48.158;11.540;2023-12-20T06:48:23;5.50;99.90
1786;DHT22;890;48.158;11.540;2023-12-20T06:50:50;5.50;99.90
1786;DHT22;890;48.158;11.540;2023-12-20T06:53:17;5.50;99.90
1786;DHT22;890;48.158;11.540;2023-12-20T06:55:42;5.50;99.90
1786;DHT22;890;48.158;11.540;2023-12-20T06:58:08;5.40;99.90
1786;DHT22;890;48.158;11.540;2023-12-20T07:00:34;6.30;99.90
1786;DHT22;890;48.158;11.540;2023-12-20T07:03:00;5.50;99.90
1786;DHT22;890;48.158;11.540;2023-12-20T07:05:25;6.60;99.90
1786;DHT22;890;48.158;11.540;2023-12-20T07:07:52;5.40;99.90
1786;DHT22;890;48.158;11.540;2023-12-20T07:10:17;5.40;99.90
1786;DHT22;890;48.158;11.540;2023-12-20T07:12:43;6.00;99.90
1786;DHT22;890;48.158;11.540;2023-12-20T07:15:09;6.00;99.90
1786;DHT22;890;48.158;11.540;2023-12-20T07:17:35;5.40;99.90
1786;DHT22;890;48.158;11.540;2023-12-20T07:20:01;7.00;99.90
1786;DHT22;890;48.158;11.540;2023-12-20T07:22:29;5.40;99.90
1786;DHT22;890;48.158;11.540;2023-12-20T07:24:57;6.60;99.90
1786;DHT22;890;48.158;11.540;2023-12-20T07:27:23;5.50;99.90
1786;DHT22;890;48.158;11.540;2023-12-20T07:29:50;6.50;99.90
1786;DHT22;890;48.158;11.540;2023-12-20T07:32:15;5.90;99.90
1786;DHT22;890;48.158;11.540;2023-12-20T07:34:41;5.60;99.90
1786;DHT22;890;48.158;11.540;2023-12-20T07:37:07;5.60;99.90
1786;DHT22;890;48.158;11.540;2023-12-20T07:39:35;5.80;99.90
1786;DHT22;890;48.158;11.540;2023-12-20T07:42:01;6.20;99.90
1786;DHT22;890;48.158;11.540;2023-12-20T07:44:27;5.80;99.90
1786;DHT22;890;48.158;11.540;2023-12-20T07:46:52;6.70;99.90
1786;DHT22;890;48.158;11.540;2023-12-20T07:49:19;5.10;99.90
1786;DHT22;890;48.158;11.540;2023-12-20T07:51:45;6.30;99.90
1786;DHT22;890;48.158;11.540;2023-12-20T07:54:10;6.00;99.90
1786;DHT22;890;48.158;11.540;2023-12-20T07:56:36;6.20;99.90
1786;DHT22;890;48.158;11.540;2023-12-20T07:59:03;6.00;99.90
1786;DHT22;890;48.158;11.540;2023-12-20T08:01:28;6.00;99.90
1786;DHT22;890;48.158;11.540;2023-12-20T08:03:54;6.80;99.90
1786;DHT22;890;48.158;11.540;2023-12-20T08:06:20;6.00;99.90
1786;DHT22;890;48.158;11.540;2023-12-20T08:08:46;6.00;99.90
1786;DHT22;890;48.158;11.540;2023-12-20T08:11:12;6.70;99.90
1786;DHT22;890;48.158;11.540;2023-12-20T08:13:38;5.80;99.90
1786;DHT22;890;48.158;11.540;2023-12-20T08:16:03;5.70;99.90
1786;DHT22;890;48.158;11.540;2023-12-20T08:18:29;5.70;99.90
1786;DHT22;890;48.158;11.540;2023-12-20T08:20:55;6.40;99.90
1786;DHT22;890;48.158;11.540;2023-12-20T08:23:21;5.60;99.90
1786;DHT22;890;48.158;11.540;2023-12-20T08:25:47;5.60;99.90
1786;DHT22;890;48.158;11.540;2023-12-20T08:28:13;5.90;99.90
1786;DHT22;890;48.158;11.540;2023-12-20T08:30:39;6.60;99.90
1786;DHT22;890;48.158;11.540;2023-12-20T08:33:05;5.60;99.90
1786;DHT22;890;48.158;11.540;2023-12-20T08:35:33;6.20;99.90
1786;DHT22;890;48.158;11.540;2023-12-20T08:37:58;5.70;99.90
1786;DHT22;890;48.158;11.540;2023-12-20T08:40:26;6.50;99.90
1786;DHT22;890;48.158;11.540;2023-12-20T08:42:51;5.90;99.90
1786;DHT22;890;48.158;11.540;2023-12-20T08:45:19;5.80;99.90
1786;DHT22;890;48.158;11.540;2023-12-20T08:47:44;7.90;99.90
1786;DHT22;890;48.158;11.540;2023-12-20T08:50:12;6.00;99.90
1786;DHT22;890;48.158;11.540;2023-12-20T08:52:37;5.80;99.90
1786;DHT22;890;48.158;11.540;2023-12-20T08:55:03;5.90;99.90
1786;DHT22;890;48.158;11.540;2023-12-20T08:57:29;5.90;99.90
1786;DHT22;890;48.158;11.540;2023-12-20T08:59:57;6.30;99.90
1786;DHT22;890;48.158;11.540;2023-12-20T09:02:23;6.00;99.90
1786;DHT22;890;48.158;11.540;2023-12-20T09:04:48;5.90;99.90
1786;DHT22;890;48.158;11.540;2023-12-20T09:07:22;7.70;99.90
1786;DHT22;890;48.158;11.540;2023-12-20T09:09:49;7.40;99.90
1786;DHT22;890;48.158;11.540;2023-12-20T09:12:14;6.00;99.90
1786;DHT22;890;48.158;11.540;2023-12-20T09:14:41;8.10;99.90
1786;DHT22;890;48.158;11.540;2023-12-20T09:17:06;6.10;99.90
1786;DHT22;890;48.158;11.540;2023-12-20T09:19:34;8.10;99.90
1786;DHT22;890;48.158;11.540;2023-12-20T09:22:00;6.10;99.90
1786;DHT22;890;48.158;11.540;2023-12-20T09:24:27;7.10;99.90
1786;DHT22;890;48.158;11.540;2023-12-20T09:26:53;6.50;99.90
1786;DHT22;890;48.158;11.540;2023-12-20T09:29:18;6.10;99.90
1786;DHT22;890;48.158;11.540;2023-12-20T09:31:44;6.10;99.90
1786;DHT22;890;48.158;11.540;2023-12-20T09:34:11;7.50;99.90
1786;DHT22;890;48.158;11.540;2023-12-20T09:36:37;6.80;99.90
1786;DHT22;890;48.158;11.540;2023-12-20T09:39:06;7.20;99.90
1786;DHT22;890;48.158;11.540;2023-12-20T09:41:32;7.10;99.90
1786;DHT22;890;48.158;11.540;2023-12-20T09:44:00;6.10;99.90
1786;DHT22;890;48.158;11.540;2023-12-20T09:46:29;7.20;99.90
1786;DHT22;890;48.158;11.540;2023-12-20T09:48:59;6.20;99.90
1786;DHT22;890;48.158;11.540;2023-12-20T09:51:27;7.40;99.90
1786;DHT22;890;48.158;11.540;2023-12-20T09:53:54;7.30;99.90
1786;DHT22;890;48.158;11.540;2023-12-20T09:56:22;7.20;99.90
1786;DHT22;890;48.158;11.540;2023-12-20T09:58:48;6.30;99.90
1786;DHT22;890;48.158;11.540;2023-12-20T10:01:15;6.20;99.90
1786;DHT22;890;48.158;11.540;2023-12-20T10:03:41;6.30;99.90
1786;DHT22;890;48.158;11.540;2023-12-20T10:06:07;6.40;99.90
1786;DHT22;890;48.158;11.540;2023-12-20T10:08:34;6.40;99.90
1786;DHT22;890;48.158;11.540;2023-12-20T10:11:02;6.40;99.90
1786;DHT22;890;48.158;11.540;2023-12-20T10:13:29;6.40;99.90
1786;DHT22;890;48.158;11.540;2023-12-20T10:15:55;7.60;99.90
1786;DHT22;890;48.158;11.540;2023-12-20T10:18:21;7.40;99.90
1786;DHT22;890;48.158;11.540;2023-12-20T10:20:47;6.70;99.90
1786;DHT22;890;48.158;11.540;2023-12-20T10:23:13;6.80;99.90
1786;DHT22;890;48.158;11.540;2023-12-20T10:25:40;7.20;99.90
1786;DHT22;890;48.158;11.540;2023-12-20T10:28:15;7.10;99.90
1786;DHT22;890;48.158;11.540;2023-12-20T10:30:46;7.00;99.90
1786;DHT22;890;48.158;11.540;2023-12-20T10:33:33;6.90;99.90
1786;DHT22;890;48.158;11.540;2023-12-20T10:36:00;6.90;99.90
1786;DHT22;890;48.158;11.540;2023-12-20T10:38:27;9.10;99.90
1786;DHT22;890;48.158;11.540;2023-12-20T10:40:57;6.90;99.90
1786;DHT22;890;48.158;11.540;2023-12-20T10:43:25;7.20;99.90
1786;DHT22;890;48.158;11.540;2023-12-20T10:45:52;6.80;99.90
1786;DHT22;890;48.158;11.540;2023-12-20T10:48:18;6.80;99.90
1786;DHT22;890;48.158;11.540;2023-12-20T10:50:45;7.40;99.90
1786;DHT22;890;48.158;11.540;2023-12-20T10:53:12;7.00;99.90
1786;DHT22;890;48.158;11.540;2023-12-20T10:55:38;6.90;99.90
1786;DHT22;890;48.158;11.540;2023-12-20T10:58:08;6.40;99.90
1786;DHT22;890;48.158;11.540;2023-12-20T11:00:39;6.80;99.90
1786;DHT22;890;48.158;11.540;2023-12-20T11:03:09;7.10;99.90
1786;DHT22;890;48.158;11.540;2023-12-20T11:11:33;6.60;99.90
1786;DHT22;890;48.158;11.540;2023-12-20T11:14:05;6.70;99.90
1786;DHT22;890;48.158;11.540;2023-12-20T11:16:32;7.50;99.90
1786;DHT22;890;48.158;11.540;2023-12-20T11:19:04;7.60;99.90
1786;DHT22;890;48.158;11.540;2023-12-20T11:21:29;7.40;99.90
1786;DHT22;890;48.158;11.540;2023-12-20T11:23:55;7.90;99.90
1786;DHT22;890;48.158;11.540;2023-12-20T11:26:28;7.30;99.90
1786;DHT22;890;48.158;11.540;2023-12-20T11:29:29;6.90;99.90
1786;DHT22;890;48.158;11.540;2023-12-20T11:31:56;6.90;99.90
1786;DHT22;890;48.158;11.540;2023-12-20T11:34:26;7.10;99.90
1786;DHT22;890;48.158;11.540;2023-12-20T11:37:00;7.10;99.90
1786;DHT22;890;48.158;11.540;2023-12-20T11:39:28;7.10;99.90
1786;DHT22;890;48.158;11.540;2023-12-20T11:41:57;7.30;99.90
1786;DHT22;890;48.158;11.540;2023-12-20T11:44:30;9.00;99.90
1786;DHT22;890;48.158;11.540;2023-12-20T11:46:56;9.30;99.90
1786;DHT22;890;48.158;11.540;2023-12-20T11:49:25;7.80;99.90
1786;DHT22;890;48.158;11.540;2023-12-20T11:51:50;8.90;99.90
1786;DHT22;890;48.158;11.540;2023-12-20T11:54:16;9.20;99.90
1786;DHT22;890;48.158;11.540;2023-12-20T11:56:42;8.40;99.90
1786;DHT22;890;48.158;11.540;2023-12-20T11:59:10;7.50;99.90
1786;DHT22;890;48.158;11.540;2023-12-20T12:01:38;7.30;99.90
1786;DHT22;890;48.158;11.540;2023-12-20T12:04:06;7.30;99.90
1786;DHT22;890;48.158;11.540;2023-12-20T12:06:32;7.50;99.90
1786;DHT22;890;48.158;11.540;2023-12-20T12:08:58;7.40;99.90
1786;DHT22;890;48.158;11.540;2023-12-20T12:11:24;8.40;99.90
1786;DHT22;890;48.158;11.540;2023-12-20T12:13:50;7.40;99.90
1786;DHT22;890;48.158;11.540;2023-12-20T12:16:20;7.50;99.90
1786;DHT22;890;48.158;11.540;2023-12-20T12:18:54;7.40;99.90
1786;DHT22;890;48.158;11.540;2023-12-20T12:21:20;7.50;99.90
1786;DHT22;890;48.158;11.540;2023-12-20T12:23:46;7.50;99.90
1786;DHT22;890;48.158;11.540;2023-12-20T12:26:12;7.50;99.90
1786;DHT22;890;48.158;11.540;2023-12-20T12:28:40;7.60;99.90
1786;DHT22;890;48.158;11.540;2023-12-20T12:31:08;7.50;99.90
1786;DHT22;890;48.158;11.540;2023-12-20T12:33:34;8.00;99.90
1786;DHT22;890;48.158;11.540;2023-12-20T12:36:05;8.00;99.90
1786;DHT22;890;48.158;11.540;2023-12-20T12:38:32;7.50;99.90
1786;DHT22;890;48.158;11.540;2023-12-20T12:40:58;7.50;99.90
1786;DHT22;890;48.158;11.540;2023-12-20T12:43:25;7.60;99.90
1786;DHT22;890;48.158;11.540;2023-12-20T12:45:51;7.60;99.90
1786;DHT22;890;48.158;11.540;2023-12-20T12:48:17;7.60;99.90
1786;DHT22;890;48.158;11.540;2023-12-20T12:50:45;7.60;99.90
1786;DHT22;890;48.158;11.540;2023-12-20T12:53:12;7.50;99.90
1786;DHT22;890;48.158;11.540;2023-12-20T12:55:41;7.50;99.90
1786;DHT22;890;48.158;11.540;2023-12-20T12:58:07;7.50;99.90
1786;DHT22;890;48.158;11.540;2023-12-20T13:00:32;7.60;99.90
1786;DHT22;890;48.158;11.540;2023-12-20T13:02:58;7.40;99.90
1786;DHT22;890;48.158;11.540;2023-12-20T13:05:24;7.40;99.90
1786;DHT22;890;48.158;11.540;2023-12-20T13:07:49;7.10;99.90
1786;DHT22;890;48.158;11.540;2023-12-20T13:10:15;6.90;99.90
1786;DHT22;890;48.158;11.540;2023-12-20T13:12:44;6.90;99.90
1786;DHT22;890;48.158;11.540;2023-12-20T13:15:11;6.70;99.90
1786;DHT22;890;48.158;11.540;2023-12-20T13:17:37;6.50;99.90
1786;DHT22;890;48.158;11.540;2023-12-20T13:20:03;6.50;99.90
1786;DHT22;890;48.158;11.540;2023-12-20T13:22:29;6.20;99.90
1786;DHT22;890;48.158;11.540;2023-12-20T13:24:55;6.20;99.90
1786;DHT22;890;48.158;11.540;2023-12-20T13:27:21;7.50;99.90
1786;DHT22;890;48.158;11.540;2023-12-20T13:29:47;6.20;99.90
1786;DHT22;890;48.158;11.540;2023-12-20T13:32:13;6.20;99.90
1786;DHT22;890;48.158;11.540;2023-12-20T13:34:38;6.10;99.90
1786;DHT22;890;48.158;11.540;2023-12-20T13:37:04;6.20;99.90
1786;DHT22;890;48.158;11.540;2023-12-20T13:39:30;7.20;99.90
1786;DHT22;890;48.158;11.540;2023-12-20T13:41:58;6.20;99.90
1786;DHT22;890;48.158;11.540;2023-12-20T13:44:23;6.20;99.90
1786;DHT22;890;48.158;11.540;2023-12-20T13:46:51;6.40;99.90
1786;DHT22;890;48.158;11.540;2023-12-20T13:49:18;6.30;99.90
1786;DHT22;890;48.158;11.540;2023-12-20T13:51:46;6.40;99.90
1786;DHT22;890;48.158;11.540;2023-12-20T13:54:13;6.40;99.90
1786;DHT22;890;48.158;11.540;2023-12-20T13:56:39;7.30;99.90
1786;DHT22;890;48.158;11.540;2023-12-20T13:59:05;6.50;99.90
1786;DHT22;890;48.158;11.540;2023-12-20T14:01:32;7.40;99.90
1786;DHT22;890;48.158;11.540;2023-12-20T14:03:58;6.40;99.90
1786;DHT22;890;48.158;11.540;2023-12-20T14:06:26;6.90;99.90
1786;DHT22;890;48.158;11.540;2023-12-20T14:08:52;6.30;99.90
1786;DHT22;890;48.158;11.540;2023-12-20T14:11:18;7.00;99.90
1786;DHT22;890;48.158;11.540;2023-12-20T14:13:44;6.50;99.90
1786;DHT22;890;48.158;11.540;2023-12-20T14:16:10;6.80;99.90
1786;DHT22;890;48.158;11.540;2023-12-20T14:18:36;6.40;99.90
1786;DHT22;890;48.158;11.540;2023-12-20T14:21:06;6.40;99.90
1786;DHT22;890;48.158;11.540;2023-12-20T14:23:32;6.30;99.60
1786;DHT22;890;48.158;11.540;2023-12-20T14:25:59;6.50;99.70
1786;DHT22;890;48.158;11.540;2023-12-20T14:28:25;8.30;99.90
1786;DHT22;890;48.158;11.540;2023-12-20T14:30:52;8.40;99.90
1786;DHT22;890;48.158;11.540;2023-12-20T14:33:17;6.40;99.30
1786;DHT22;890;48.158;11.540;2023-12-20T14:35:46;6.90;99.10
1786;DHT22;890;48.158;11.540;2023-12-20T14:38:12;6.80;98.80
1786;DHT22;890;48.158;11.540;2023-12-20T14:40:41;6.40;98.70
1786;DHT22;890;48.158;11.540;2023-12-20T14:43:07;6.40;98.40
1786;DHT22;890;48.158;11.540;2023-12-20T14:45:33;6.30;98.40
1786;DHT22;890;48.158;11.540;2023-12-20T14:47:59;6.50;98.60
1786;DHT22;890;48.158;11.540;2023-12-20T14:50:25;7.20;98.70
1786;DHT22;890;48.158;11.540;2023-12-20T14:52:51;6.60;98.40
1786;DHT22;890;48.158;11.540;2023-12-20T14:55:19;6.40;98.20
1786;DHT22;890;48.158;11.540;2023-12-20T14:57:45;6.40;98.00
1786;DHT22;890;48.158;11.540;2023-12-20T15:00:11;7.60;98.40
1786;DHT22;890;48.158;11.540;2023-12-20T15:02:41;6.40;97.80
1786;DHT22;890;48.158;11.540;2023-12-20T15:05:07;7.40;98.30
1786;DHT22;890;48.158;11.540;2023-12-20T15:07:33;6.30;97.80
1786;DHT22;890;48.158;11.540;2023-12-20T15:09:58;6.30;97.60
1786;DHT22;890;48.158;11.540;2023-12-20T15:12:24;7.10;97.80
1786;DHT22;890;48.158;11.540;2023-12-20T15:14:49;6.30;97.40
1786;DHT22;890;48.158;11.540;2023-12-20T15:17:15;6.80;97.30
1786;DHT22;890;48.158;11.540;2023-12-20T15:19:41;7.10;97.60
1786;DHT22;890;48.158;11.540;2023-12-20T15:22:08;6.20;97.50
1786;DHT22;890;48.158;11.540;2023-12-20T15:24:34;6.20;97.10
1786;DHT22;890;48.158;11.540;2023-12-20T15:27:06;7.60;97.60
1786;DHT22;890;48.158;11.540;2023-12-20T15:29:32;8.40;97.70
1786;DHT22;890;48.158;11.540;2023-12-20T15:31:58;7.00;96.90
1786;DHT22;890;48.158;11.540;2023-12-20T15:34:25;7.20;96.70
1786;DHT22;890;48.158;11.540;2023-12-20T15:36:54;6.30;96.20
1786;DHT22;890;48.158;11.540;2023-12-20T15:39:20;7.10;96.40
1786;DHT22;890;48.158;11.540;2023-12-20T15:41:46;8.20;96.70
1786;DHT22;890;48.158;11.540;2023-12-20T15:44:13;7.10;96.10
1786;DHT22;890;48.158;11.540;2023-12-20T15:46:39;6.10;95.50
1786;DHT22;890;48.158;11.540;2023-12-20T15:49:05;6.10;95.20
1786;DHT22;890;48.158;11.540;2023-12-20T15:51:30;6.00;95.10
1786;DHT22;890;48.158;11.540;2023-12-20T15:53:57;6.00;94.90
1786;DHT22;890;48.158;11.540;2023-12-20T15:56:23;6.80;95.20
1786;DHT22;890;48.158;11.540;2023-12-20T15:58:48;5.80;94.80
1786;DHT22;890;48.158;11.540;2023-12-20T16:01:14;5.90;94.80
1786;DHT22;890;48.158;11.540;2023-12-20T16:03:40;6.00;94.70
1786;DHT22;890;48.158;11.540;2023-12-20T16:06:06;6.40;94.90
1786;DHT22;890;48.158;11.540;2023-12-20T16:08:31;6.50;94.80
1786;DHT22;890;48.158;11.540;2023-12-20T16:10:58;5.90;94.40
1786;DHT22;890;48.158;11.540;2023-12-20T16:13:24;6.80;94.60
1786;DHT22;890;48.158;11.540;2023-12-20T16:15:49;6.00;94.20
1786;DHT22;890;48.158;11.540;2023-12-20T16:18:15;6.80;94.60